sensor_id;sensor_type;location;lat;lon;timestamp;pressure;altitude;pressure_sealevel;temperature;humidity
27429;BME280;14881;48.092;11.574;2023-07-29T00:00:44;95252.09;;;15.44;100.00
27429;BME280;14881;48.092;11.574;2023-07-29T00:03:10;95255.16;;;15.42;100.00
27429;BME280;14881;48.092;11.574;2023-07-29T00:05:37;95246.00;;;15.38;100.00
27429;BME280;14881;48.092;11.574;2023-07-29T00:08:05;95241.69;;;15.28;100.00
27429;BME280;14881;48.092;11.574;2023-07-29T00:10:32;95245.56;;;15.19;100.00
27429;BME280;14881;48.092;11.574;2023-07-29T00:12:59;95241.56;;;15.16;100.00
27429;BME280;14881;48.092;11.574;2023-07-29T00:15:25;95245.56;;;15.10;100.00
27429;BME280;14881;48.092;11.574;2023-07-29T00:17:51;95253.63;;;15.07;100.00
27429;BME280;14881;48.092;11.574;2023-07-29T00:20:18;95247.22;;;15.03;100.00
27429;BME280;14881;48.092;11.574;2023-07-29T00:22:44;95240.78;;;14.98;100.00
27429;BME280;14881;48.092;11.574;2023-07-29T00:25:11;95246.41;;;14.93;100.00
27429;BME280;14881;48.092;11.574;2023-07-29T00:27:38;95243.50;;;14.90;100.00
27429;BME280;14881;48.092;11.574;2023-07-29T00:30:06;95247.03;;;14.90;100.00
27429;BME280;14881;48.092;11.574;2023-07-29T00:32:32;95236.91;;;15.00;100.00
27429;BME280;14881;48.092;11.574;2023-07-29T00:34:59;95231.75;;;14.98;100.00
27429;BME280;14881;48.092;11.574;2023-07-29T00:37:27;95232.72;;;14.93;100.00
27429;BME280;14881;48.092;11.574;2023-07-29T00:39:54;95241.25;;;14.92;100.00
27429;BME280;14881;48.092;11.574;2023-07-29T00:42:21;95237.88;;;14.95;100.00
27429;BME280;14881;48.092;11.574;2023-07-29T00:44:47;95235.47;;;15.02;100.00
27429;BME280;14881;48.092;11.574;2023-07-29T00:47:15;95237.19;;;15.07;100.00
27429;BME280;14881;48.092;11.574;2023-07-29T00:49:42;95233.97;;;15.13;100.00
27429;BME280;14881;48.092;11.574;2023-07-29T00:52:10;95240.91;;;15.19;100.00
27429;BME280;14881;48.092;11.574;2023-07-29T00:54:38;95234.44;;;15.24;100.00
27429;BME280;14881;48.092;11.574;2023-07-29T00:57:05;95232.97;;;15.26;100.00
27429;BME280;14881;48.092;11.574;2023-07-29T00:59:34;95221.88;;;15.31;100.00
27429;BME280;14881;48.092;11.574;2023-07-29T01:02:01;95228.78;;;15.29;100.00
27429;BME280;14881;48.092;11.574;2023-07-29T01:04:28;95224.28;;;15.33;100.00
27429;BME280;14881;48.092;11.574;2023-07-29T01:06:59;95229.72;;;15.42;100.00
27429;BME280;14881;48.092;11.574;2023-07-29T01:09:41;95233.75;;;15.44;100.00
27429;BME280;14881;48.092;11.574;2023-07-29T01:12:16;95233.09;;;15.47;100.00
27429;BME280;14881;48.092;11.574;2023-07-29T01:14:51;95220.69;;;15.41;100.00
27429;BME280;14881;48.092;11.574;2023-07-29T01:17:23;95229.38;;;15.43;100.00
27429;BME280;14881;48.092;11.574;2023-07-29T01:20:00;95224.91;;;15.39;100.00
27429;BME280;14881;48.092;11.574;2023-07-29T01:22:27;95212.19;;;15.34;100.00
27429;BME280;14881;48.092;11.574;2023-07-29T01:24:56;95210.28;;;15.26;100.00
27429;BME280;14881;48.092;11.574;2023-07-29T01:27:22;95221.75;;;15.19;100.00
27429;BME280;14881;48.092;11.574;2023-07-29T01:29:49;95218.19;;;15.19;100.00
27429;BME280;14881;48.092;11.574;2023-07-29T01:32:21;95218.19;;;15.19;100.00
27429;BME280;14881;48.092;11.574;2023-07-29T01:34:56;95216.13;;;15.16;100.00
27429;BME280;14881;48.092;11.574;2023-07-29T01:37:27;95204.72;;;15.05;100.00
27429;BME280;14881;48.092;11.574;2023-07-29T01:39:57;95203.91;;;14.96;100.00
27429;BME280;14881;48.092;11.574;2023-07-29T01:42:25;95209.56;;;15.00;100.00
27429;BME280;14881;48.092;11.574;2023-07-29T01:44:55;95199.72;;;14.98;100.00
27429;BME280;14881;48.092;11.574;2023-07-29T01:47:22;95202.47;;;14.98;100.00
27429;BME280;14881;48.092;11.574;2023-07-29T01:49:48;95204.06;;;15.00;100.00
27429;BME280;14881;48.092;11.574;2023-07-29T01:52:15;95197.81;;;14.99;100.00
27429;BME280;14881;48.092;11.574;2023-07-29T01:54:41;95194.75;;;15.01;100.00
27429;BME280;14881;48.092;11.574;2023-07-29T01:57:08;95202.78;;;14.97;100.00
27429;BME280;14881;48.092;11.574;2023-07-29T01:59:34;95192.16;;;14.95;100.00
27429;BME280;14881;48.092;11.574;2023-07-29T02:02:01;95195.91;;;14.82;100.00
27429;BME280;14881;48.092;11.574;2023-07-29T02:04:28;95189.59;;;14.90;100.00
27429;BME280;14881;48.092;11.574;2023-07-29T02:06:54;95194.75;;;14.92;100.00
27429;BME280;14881;48.092;11.574;2023-07-29T02:09:21;95188.78;;;14.90;100.00
27429;BME280;14881;48.092;11.574;2023-07-29T02:11:47;95194.75;;;14.92;100.00
27429;BME280;14881;48.092;11.574;2023-07-29T02:14:14;95190.06;;;14.92;100.00
27429;BME280;14881;48.092;11.574;2023-07-29T02:16:41;95190.88;;;14.93;100.00
27429;BME280;14881;48.092;11.574;2023-07-29T02:19:07;95194.41;;;14.93;100.00
27429;BME280;14881;48.092;11.574;2023-07-29T02:21:33;95188.94;;;14.93;100.00
27429;BME280;14881;48.092;11.574;2023-07-29T02:24:00;95184.63;;;14.84;100.00
27429;BME280;14881;48.092;11.574;2023-07-29T02:26:26;95187.84;;;14.77;100.00
27429;BME280;14881;48.092;11.574;2023-07-29T02:28:53;95188.34;;;14.79;100.00
27429;BME280;14881;48.092;11.574;2023-07-29T02:31:22;95196.53;;;14.88;100.00
27429;BME280;14881;48.092;11.574;2023-07-29T02:33:48;95193.81;;;14.88;100.00
27429;BME280;14881;48.092;11.574;2023-07-29T02:36:15;95198.28;;;14.92;100.00
27429;BME280;14881;48.092;11.574;2023-07-29T02:38:42;95208.41;;;14.92;100.00
27429;BME280;14881;48.092;11.574;2023-07-29T02:41:09;95203.13;;;14.95;100.00
27429;BME280;14881;48.092;11.574;2023-07-29T02:43:35;95205.84;;;14.95;100.00
27429;BME280;14881;48.092;11.574;2023-07-29T02:46:02;95208.59;;;14.95;100.00
27429;BME280;14881;48.092;11.574;2023-07-29T02:48:29;95208.09;;;14.93;100.00
27429;BME280;14881;48.092;11.574;2023-07-29T02:50:56;95200.53;;;14.90;100.00
27429;BME280;14881;48.092;11.574;2023-07-29T02:53:22;95203.94;;;14.87;100.00
27429;BME280;14881;48.092;11.574;2023-07-29T02:55:49;95204.41;;;14.89;100.00
27429;BME280;14881;48.092;11.574;2023-07-29T02:58:15;95199.44;;;14.83;100.00
27429;BME280;14881;48.092;11.574;2023-07-29T03:00:42;95194.13;;;14.86;100.00
27429;BME280;14881;48.092;11.574;2023-07-29T03:03:09;95196.38;;;14.84;100.00
27429;BME280;14881;48.092;11.574;2023-07-29T03:05:36;95194.94;;;14.87;100.00
27429;BME280;14881;48.092;11.574;2023-07-29T03:08:04;95193.47;;;14.89;100.00
27429;BME280;14881;48.092;11.574;2023-07-29T03:10:30;95193.63;;;14.93;100.00
27429;BME280;14881;48.092;11.574;2023-07-29T03:12:56;95190.41;;;14.91;100.00
27429;BME280;14881;48.092;11.574;2023-07-29T03:15:23;95196.34;;;14.93;100.00
27429;BME280;14881;48.092;11.574;2023-07-29T03:17:50;95193.28;;;14.94;100.00
27429;BME280;14881;48.092;11.574;2023-07-29T03:20:16;95199.41;;;14.91;100.00
27429;BME280;14881;48.092;11.574;2023-07-29T03:22:44;95194.91;;;14.95;100.00
27429;BME280;14881;48.092;11.574;2023-07-29T03:25:10;95191.84;;;14.97;100.00
27429;BME280;14881;48.092;11.574;2023-07-29T03:27:37;95195.53;;;15.01;100.00
27429;BME280;14881;48.092;11.574;2023-07-29T03:30:04;95184.75;;;15.05;100.00
27429;BME280;14881;48.092;11.574;2023-07-29T03:32:31;95177.19;;;15.02;100.00
27429;BME280;14881;48.092;11.574;2023-07-29T03:34:57;95176.22;;;15.06;100.00
27429;BME280;14881;48.092;11.574;2023-07-29T03:37:24;95180.09;;;15.05;100.00
27429;BME280;14881;48.092;11.574;2023-07-29T03:39:51;95176.06;;;15.03;100.00
27429;BME280;14881;48.092;11.574;2023-07-29T03:42:18;95181.22;;;15.04;100.00
27429;BME280;14881;48.092;11.574;2023-07-29T03:44:44;95176.22;;;15.06;100.00
27429;BME280;14881;48.092;11.574;2023-07-29T03:47:10;95184.88;;;15.08;100.00
27429;BME280;14881;48.092;11.574;2023-07-29T03:49:37;95183.91;;;15.13;100.00
27429;BME280;14881;48.092;11.574;2023-07-29T03:52:04;95176.84;;;15.12;100.00
27429;BME280;14881;48.092;11.574;2023-07-29T03:54:30;95179.88;;;15.19;100.00
27429;BME280;14881;48.092;11.574;2023-07-29T03:56:57;95182.31;;;15.20;100.00
27429;BME280;14881;48.092;11.574;2023-07-29T03:59:24;95176.63;;;15.25;100.00
27429;BME280;14881;48.092;11.574;2023-07-29T04:01:50;95179.84;;;15.27;100.00
27429;BME280;14881;48.092;11.574;2023-07-29T04:04:16;95183.88;;;15.30;100.00
27429;BME280;14881;48.092;11.574;2023-07-29T04:06:43;95184.97;;;15.38;100.00
27429;BME280;14881;48.092;11.574;2023-07-29T04:09:09;95180.78;;;15.40;100.00
27429;BME280;14881;48.092;11.574;2023-07-29T04:11:35;95169.63;;;15.45;100.00
27429;BME280;14881;48.092;11.574;2023-07-29T04:14:03;95156.91;;;15.49;100.00
27429;BME280;14881;48.092;11.574;2023-07-29T04:16:29;95158.66;;;15.54;100.00
27429;BME280;14881;48.092;11.574;2023-07-29T04:18:55;95150.63;;;15.57;100.00
27429;BME280;14881;48.092;11.574;2023-07-29T04:21:22;95148.22;;;15.56;100.00
27429;BME280;14881;48.092;11.574;2023-07-29T04:23:48;95145.78;;;15.54;100.00
27429;BME280;14881;48.092;11.574;2023-07-29T04:26:14;95141.09;;;15.55;100.00
27429;BME280;14881;48.092;11.574;2023-07-29T04:28:41;95140.94;;;15.51;100.00
27429;BME280;14881;48.092;11.574;2023-07-29T04:31:09;95137.88;;;15.53;100.00
27429;BME280;14881;48.092;11.574;2023-07-29T04:33:35;95133.38;;;15.48;100.00
27429;BME280;14881;48.092;11.574;2023-07-29T04:36:03;95135.50;;;15.43;100.00
27429;BME280;14881;48.092;11.574;2023-07-29T04:38:32;95141.28;;;15.50;100.00
27429;BME280;14881;48.092;11.574;2023-07-29T04:40:59;95138.22;;;15.51;100.00
27429;BME280;14881;48.092;11.574;2023-07-29T04:43:27;95137.59;;;15.46;100.00
27429;BME280;14881;48.092;11.574;2023-07-29T04:45:53;95137.09;;;15.44;100.00
27429;BME280;14881;48.092;11.574;2023-07-29T04:48:21;95141.94;;;15.55;100.00
27429;BME280;14881;48.092;11.574;2023-07-29T04:50:47;95150.09;;;15.64;100.00
27429;BME280;14881;48.092;11.574;2023-07-29T04:53:13;95151.03;;;15.68;100.00
27429;BME280;14881;48.092;11.574;2023-07-29T04:55:41;95148.25;;;15.77;100.00
27429;BME280;14881;48.092;11.574;2023-07-29T04:58:08;95141.41;;;15.91;100.00
27429;BME280;14881;48.092;11.574;2023-07-29T05:00:34;95139.06;;;16.02;100.00
27429;BME280;14881;48.092;11.574;2023-07-29T05:03:01;95137.34;;;16.18;100.00
27429;BME280;14881;48.092;11.574;2023-07-29T05:05:28;95137.19;;;16.35;100.00
27429;BME280;14881;48.092;11.574;2023-07-29T05:07:54;95139.78;;;16.53;100.00
27429;BME280;14881;48.092;11.574;2023-07-29T05:10:21;95115.97;;;16.65;100.00
27429;BME280;14881;48.092;11.574;2023-07-29T05:12:47;95120.03;;;16.80;100.00
27429;BME280;14881;48.092;11.574;2023-07-29T05:15:13;95111.50;;;16.94;100.00
27429;BME280;14881;48.092;11.574;2023-07-29T05:17:40;95099.28;;;17.03;100.00
27429;BME280;14881;48.092;11.574;2023-07-29T05:20:07;95093.81;;;17.16;100.00
27429;BME280;14881;48.092;11.574;2023-07-29T05:22:35;95081.13;;;17.23;100.00
27429;BME280;14881;48.092;11.574;2023-07-29T05:25:01;95087.88;;;17.26;100.00
27429;BME280;14881;48.092;11.574;2023-07-29T05:27:27;95082.84;;;17.28;100.00
27429;BME280;14881;48.092;11.574;2023-07-29T05:29:54;95087.06;;;17.37;100.00
27429;BME280;14881;48.092;11.574;2023-07-29T05:32:20;95088.47;;;17.44;100.00
27429;BME280;14881;48.092;11.574;2023-07-29T05:34:46;95085.59;;;17.52;100.00
27429;BME280;14881;48.092;11.574;2023-07-29T05:37:13;95095.00;;;17.63;100.00
27429;BME280;14881;48.092;11.574;2023-07-29T05:39:40;95111.03;;;17.73;100.00
27429;BME280;14881;48.092;11.574;2023-07-29T05:42:06;95106.66;;;17.85;100.00
27429;BME280;14881;48.092;11.574;2023-07-29T05:44:33;95110.56;;;17.96;100.00
27429;BME280;14881;48.092;11.574;2023-07-29T05:47:00;95106.84;;;18.04;100.00
27429;BME280;14881;48.092;11.574;2023-07-29T05:49:26;95115.44;;;18.15;100.00
27429;BME280;14881;48.092;11.574;2023-07-29T05:51:53;95110.81;;;18.19;100.00
27429;BME280;14881;48.092;11.574;2023-07-29T05:54:19;95114.38;;;18.19;100.00
27429;BME280;14881;48.092;11.574;2023-07-29T05:56:46;95115.78;;;18.13;100.00
27429;BME280;14881;48.092;11.574;2023-07-29T05:59:13;95118.31;;;18.06;100.00
27429;BME280;14881;48.092;11.574;2023-07-29T06:01:39;95141.47;;;17.93;100.00
27429;BME280;14881;48.092;11.574;2023-07-29T06:04:06;95179.84;;;17.77;100.00
27429;BME280;14881;48.092;11.574;2023-07-29T06:06:32;95201.56;;;17.58;100.00
27429;BME280;14881;48.092;11.574;2023-07-29T06:08:59;95186.88;;;17.29;100.00
27429;BME280;14881;48.092;11.574;2023-07-29T06:11:25;95166.75;;;17.04;100.00
27429;BME280;14881;48.092;11.574;2023-07-29T06:13:52;95150.69;;;16.82;100.00
27429;BME280;14881;48.092;11.574;2023-07-29T06:16:18;95141.69;;;16.61;100.00
27429;BME280;14881;48.092;11.574;2023-07-29T06:18:45;95146.09;;;16.53;100.00
27429;BME280;14881;48.092;11.574;2023-07-29T06:21:11;95145.63;;;16.51;100.00
27429;BME280;14881;48.092;11.574;2023-07-29T06:23:42;95128.50;;;16.54;100.00
27429;BME280;14881;48.092;11.574;2023-07-29T06:26:09;95139.72;;;16.61;100.00
27429;BME280;14881;48.092;11.574;2023-07-29T06:28:35;95150.97;;;16.68;100.00
27429;BME280;14881;48.092;11.574;2023-07-29T06:31:02;95151.81;;;16.81;100.00
27429;BME280;14881;48.092;11.574;2023-07-29T06:33:29;95149.34;;;16.88;100.00
27429;BME280;14881;48.092;11.574;2023-07-29T06:35:55;95161.81;;;16.98;100.00
27429;BME280;14881;48.092;11.574;2023-07-29T06:38:21;95162.28;;;17.00;100.00
27429;BME280;14881;48.092;11.574;2023-07-29T06:40:48;95181.72;;;16.95;100.00
27429;BME280;14881;48.092;11.574;2023-07-29T06:43:14;95179.88;;;16.87;100.00
27429;BME280;14881;48.092;11.574;2023-07-29T06:45:41;95189.78;;;16.79;100.00
27429;BME280;14881;48.092;11.574;2023-07-29T06:48:08;95197.75;;;16.72;100.00
27429;BME280;14881;48.092;11.574;2023-07-29T06:50:34;95212.63;;;16.62;100.00
27429;BME280;14881;48.092;11.574;2023-07-29T06:53:01;95219.81;;;16.55;100.00
27429;BME280;14881;48.092;11.574;2023-07-29T06:55:27;95217.41;;;16.53;100.00
27429;BME280;14881;48.092;11.574;2023-07-29T06:57:53;95222.22;;;16.56;100.00
27429;BME280;14881;48.092;11.574;2023-07-29T07:00:20;95243.84;;;16.58;100.00
27429;BME280;14881;48.092;11.574;2023-07-29T07:02:46;95246.91;;;16.56;100.00
27429;BME280;14881;48.092;11.574;2023-07-29T07:05:14;95240.63;;;16.56;100.00
27429;BME280;14881;48.092;11.574;2023-07-29T07:07:40;95235.78;;;16.53;100.00
27429;BME280;14881;48.092;11.574;2023-07-29T07:10:07;95225.28;;;16.55;100.00
27429;BME280;14881;48.092;11.574;2023-07-29T07:12:33;95228.50;;;16.57;100.00
27429;BME280;14881;48.092;11.574;2023-07-29T07:15:00;95222.22;;;16.56;100.00
27429;BME280;14881;48.092;11.574;2023-07-29T07:17:26;95220.41;;;16.60;100.00
27429;BME280;14881;48.092;11.574;2023-07-29T07:19:53;95223.59;;;16.62;100.00
27429;BME280;14881;48.092;11.574;2023-07-29T07:22:20;95223.09;;;16.69;100.00
27429;BME280;14881;48.092;11.574;2023-07-29T07:24:46;95233.88;;;16.74;100.00
27429;BME280;14881;48.092;11.574;2023-07-29T07:27:12;95236.44;;;16.79;100.00
27429;BME280;14881;48.092;11.574;2023-07-29T07:29:39;95228.31;;;16.83;100.00
27429;BME280;14881;48.092;11.574;2023-07-29T07:32:05;95218.75;;;16.89;100.00
27429;BME280;14881;48.092;11.574;2023-07-29T07:34:32;95216.47;;;16.91;100.00
27429;BME280;14881;48.092;11.574;2023-07-29T07:36:59;95205.75;;;16.98;100.00
27429;BME280;14881;48.092;11.574;2023-07-29T07:39:27;95191.00;;;17.02;100.00
27429;BME280;14881;48.092;11.574;2023-07-29T07:41:53;95183.25;;;17.04;100.00
27429;BME280;14881;48.092;11.574;2023-07-29T07:44:20;95173.41;;;17.16;100.00
27429;BME280;14881;48.092;11.574;2023-07-29T07:46:46;95164.75;;;17.26;100.00
27429;BME280;14881;48.092;11.574;2023-07-29T07:49:13;95160.91;;;17.51;100.00
27429;BME280;14881;48.092;11.574;2023-07-29T07:51:40;95155.44;;;17.63;100.00
27429;BME280;14881;48.092;11.574;2023-07-29T07:54:06;95150.06;;;17.67;100.00
27429;BME280;14881;48.092;11.574;2023-07-29T07:56:33;95157.50;;;17.66;100.00
27429;BME280;14881;48.092;11.574;2023-07-29T07:59:00;95149.25;;;17.66;100.00
27429;BME280;14881;48.092;11.574;2023-07-29T08:01:26;95156.94;;;17.73;100.00
27429;BME280;14881;48.092;11.574;2023-07-29T08:03:53;95154.88;;;17.70;100.00
27429;BME280;14881;48.092;11.574;2023-07-29T08:06:19;95167.25;;;17.76;100.00
27429;BME280;14881;48.092;11.574;2023-07-29T08:08:46;95156.94;;;17.85;100.00
27429;BME280;14881;48.092;11.574;2023-07-29T08:11:12;95158.88;;;17.97;100.00
27429;BME280;14881;48.092;11.574;2023-07-29T08:13:39;95162.41;;;18.09;100.00
27429;BME280;14881;48.092;11.574;2023-07-29T08:16:05;95165.13;;;18.22;100.00
27429;BME280;14881;48.092;11.574;2023-07-29T08:18:32;95161.47;;;18.30;100.00
27429;BME280;14881;48.092;11.574;2023-07-29T08:21:00;95158.22;;;18.40;100.00
27429;BME280;14881;48.092;11.574;2023-07-29T08:23:29;95154.09;;;18.46;100.00
27429;BME280;14881;48.092;11.574;2023-07-29T08:25:57;95158.81;;;18.46;100.00
27429;BME280;14881;48.092;11.574;2023-07-29T08:28:27;95159.78;;;18.53;100.00
27429;BME280;14881;48.092;11.574;2023-07-29T08:30:54;95151.91;;;18.64;100.00
27429;BME280;14881;48.092;11.574;2023-07-29T08:33:21;95153.56;;;18.81;100.00
27429;BME280;14881;48.092;11.574;2023-07-29T08:35:47;95144.69;;;18.87;100.00
27429;BME280;14881;48.092;11.574;2023-07-29T08:38:13;95144.97;;;18.98;100.00
27429;BME280;14881;48.092;11.574;2023-07-29T08:40:42;95144.00;;;19.06;100.00
27429;BME280;14881;48.092;11.574;2023-07-29T08:43:12;95144.38;;;19.04;100.00
27429;BME280;14881;48.092;11.574;2023-07-29T08:45:40;95134.13;;;19.05;100.00
27429;BME280;14881;48.092;11.574;2023-07-29T08:48:10;95141.00;;;19.11;100.00
27429;BME280;14881;48.092;11.574;2023-07-29T08:50:37;95139.50;;;19.13;100.00
27429;BME280;14881;48.092;11.574;2023-07-29T08:53:04;95148.03;;;19.24;100.00
27429;BME280;14881;48.092;11.574;2023-07-29T08:55:31;95144.88;;;19.38;100.00
27429;BME280;14881;48.092;11.574;2023-07-29T08:57:59;95144.50;;;19.39;100.00
27429;BME280;14881;48.092;11.574;2023-07-29T09:00:26;95144.13;;;19.41;100.00
27429;BME280;14881;48.092;11.574;2023-07-29T09:02:53;95138.28;;;19.42;100.00
27429;BME280;14881;48.092;11.574;2023-07-29T09:05:21;95133.53;;;19.55;100.00
27429;BME280;14881;48.092;11.574;2023-07-29T09:07:48;95132.53;;;19.63;100.00
27429;BME280;14881;48.092;11.574;2023-07-29T09:10:21;95140.72;;;19.60;100.00
27429;BME280;14881;48.092;11.574;2023-07-29T09:12:48;95145.25;;;19.68;100.00
27429;BME280;14881;48.092;11.574;2023-07-29T09:15:26;95134.03;;;19.76;100.00
27429;BME280;14881;48.092;11.574;2023-07-29T09:17:53;95133.41;;;19.83;100.00
27429;BME280;14881;48.092;11.574;2023-07-29T09:20:24;95149.41;;;19.93;100.00
27429;BME280;14881;48.092;11.574;2023-07-29T09:22:51;95119.81;;;19.90;100.00
27429;BME280;14881;48.092;11.574;2023-07-29T09:25:22;95127.78;;;19.95;100.00
27429;BME280;14881;48.092;11.574;2023-07-29T09:27:49;95122.03;;;20.20;100.00
27429;BME280;14881;48.092;11.574;2023-07-29T09:30:16;95116.94;;;20.37;100.00
27429;BME280;14881;48.092;11.574;2023-07-29T09:32:43;95122.56;;;20.60;100.00
27429;BME280;14881;48.092;11.574;2023-07-29T09:35:10;95106.13;;;20.87;100.00
27429;BME280;14881;48.092;11.574;2023-07-29T09:37:38;95108.25;;;21.16;100.00
27429;BME280;14881;48.092;11.574;2023-07-29T09:40:06;95106.97;;;21.29;100.00
27429;BME280;14881;48.092;11.574;2023-07-29T09:42:33;95099.13;;;21.35;100.00
27429;BME280;14881;48.092;11.574;2023-07-29T09:44:59;95095.28;;;21.39;100.00
27429;BME280;14881;48.092;11.574;2023-07-29T09:47:26;95106.34;;;21.62;100.00
27429;BME280;14881;48.092;11.574;2023-07-29T09:49:53;95091.84;;;21.95;100.00
27429;BME280;14881;48.092;11.574;2023-07-29T09:52:20;95094.09;;;22.12;100.00
27429;BME280;14881;48.092;11.574;2023-07-29T09:54:48;95084.66;;;22.17;100.00
27429;BME280;14881;48.092;11.574;2023-07-29T09:57:17;95079.22;;;22.54;100.00
27429;BME280;14881;48.092;11.574;2023-07-29T09:59:53;95082.72;;;22.77;100.00
27429;BME280;14881;48.092;11.574;2023-07-29T10:02:20;95069.91;;;22.69;100.00
27429;BME280;14881;48.092;11.574;2023-07-29T10:04:51;95077.97;;;22.78;100.00
27429;BME280;14881;48.092;11.574;2023-07-29T10:07:18;95076.25;;;23.00;100.00
27429;BME280;14881;48.092;11.574;2023-07-29T10:09:45;95071.13;;;23.02;100.00
27429;BME280;14881;48.092;11.574;2023-07-29T10:12:13;95074.03;;;23.16;100.00
27429;BME280;14881;48.092;11.574;2023-07-29T10:14:43;95057.56;;;23.34;100.00
27429;BME280;14881;48.092;11.574;2023-07-29T10:17:13;95051.06;;;23.59;100.00
27429;BME280;14881;48.092;11.574;2023-07-29T10:19:41;95061.47;;;23.73;100.00
27429;BME280;14881;48.092;11.574;2023-07-29T10:22:10;95055.63;;;23.85;100.00
27429;BME280;14881;48.092;11.574;2023-07-29T10:24:39;95051.69;;;23.90;100.00
27429;BME280;14881;48.092;11.574;2023-07-29T10:27:11;95048.53;;;24.57;100.00
27429;BME280;14881;48.092;11.574;2023-07-29T10:29:43;95036.81;;;25.17;100.00
27429;BME280;14881;48.092;11.574;2023-07-29T10:32:11;95033.66;;;25.50;100.00
27429;BME280;14881;48.092;11.574;2023-07-29T10:34:39;95030.50;;;25.70;100.00
27429;BME280;14881;48.092;11.574;2023-07-29T10:37:06;95024.56;;;25.71;100.00
27429;BME280;14881;48.092;11.574;2023-07-29T10:39:38;95018.19;;;25.60;100.00
27429;BME280;14881;48.092;11.574;2023-07-29T10:42:06;95014.16;;;26.07;100.00
27429;BME280;14881;48.092;11.574;2023-07-29T10:44:46;95020.88;;;26.38;100.00
27429;BME280;14881;48.092;11.574;2023-07-29T10:47:15;95017.63;;;26.54;100.00
27429;BME280;14881;48.092;11.574;2023-07-29T10:49:42;95020.47;;;26.36;100.00
27429;BME280;14881;48.092;11.574;2023-07-29T10:52:13;95014.84;;;26.50;100.00
27429;BME280;14881;48.092;11.574;2023-07-29T10:54:42;95005.38;;;26.23;100.00
27429;BME280;14881;48.092;11.574;2023-07-29T10:57:12;95008.94;;;26.16;100.00
27429;BME280;14881;48.092;11.574;2023-07-29T10:59:39;95022.16;;;25.87;100.00
27429;BME280;14881;48.092;11.574;2023-07-29T11:02:15;95017.69;;;26.40;100.00
27429;BME280;14881;48.092;11.574;2023-07-29T11:04:47;95012.94;;;26.29;100.00
27429;BME280;14881;48.092;11.574;2023-07-29T11:07:22;95012.09;;;26.36;100.00
27429;BME280;14881;48.092;11.574;2023-07-29T11:09:58;95006.31;;;26.86;100.00
27429;BME280;14881;48.092;11.574;2023-07-29T11:12:39;95011.66;;;27.28;100.00
27429;BME280;14881;48.092;11.574;2023-07-29T11:15:18;95003.78;;;27.16;100.00
27429;BME280;14881;48.092;11.574;2023-07-29T11:17:47;95005.03;;;27.08;100.00
27429;BME280;14881;48.092;11.574;2023-07-29T11:20:15;95001.09;;;27.54;100.00
27429;BME280;14881;48.092;11.574;2023-07-29T11:22:41;95002.75;;;27.48;100.00
27429;BME280;14881;48.092;11.574;2023-07-29T11:25:09;95001.91;;;26.88;100.00
27429;BME280;14881;48.092;11.574;2023-07-29T11:27:36;95001.78;;;26.15;100.00
27429;BME280;14881;48.092;11.574;2023-07-29T11:30:04;95022.94;;;25.45;100.00
27429;BME280;14881;48.092;11.574;2023-07-29T11:32:31;95031.53;;;24.80;100.00
27429;BME280;14881;48.092;11.574;2023-07-29T11:35:02;95018.84;;;23.99;100.00
27429;BME280;14881;48.092;11.574;2023-07-29T11:37:29;95032.66;;;23.41;100.00
27429;BME280;14881;48.092;11.574;2023-07-29T11:39:55;95030.19;;;23.76;100.00
27429;BME280;14881;48.092;11.574;2023-07-29T11:42:22;95027.56;;;24.74;100.00
27429;BME280;14881;48.092;11.574;2023-07-29T11:44:48;95023.34;;;25.61;100.00
27429;BME280;14881;48.092;11.574;2023-07-29T11:47:15;95016.91;;;26.18;100.00
27429;BME280;14881;48.092;11.574;2023-07-29T11:49:41;95019.13;;;26.73;100.00
27429;BME280;14881;48.092;11.574;2023-07-29T11:52:09;95021.44;;;26.95;100.00
27429;BME280;14881;48.092;11.574;2023-07-29T11:54:36;95011.81;;;27.03;100.00
27429;BME280;14881;48.092;11.574;2023-07-29T11:57:04;95017.84;;;26.91;100.00
27429;BME280;14881;48.092;11.574;2023-07-29T11:59:31;95016.72;;;26.82;100.00
27429;BME280;14881;48.092;11.574;2023-07-29T12:02:00;95014.41;;;26.59;100.00
27429;BME280;14881;48.092;11.574;2023-07-29T12:04:27;95008.84;;;26.55;100.00
27429;BME280;14881;48.092;11.574;2023-07-29T12:06:53;95004.56;;;26.33;100.00
27429;BME280;14881;48.092;11.574;2023-07-29T12:09:21;94998.56;;;26.38;100.00
27429;BME280;14881;48.092;11.574;2023-07-29T12:11:47;94989.81;;;26.43;100.00
27429;BME280;14881;48.092;11.574;2023-07-29T12:14:16;94980.84;;;26.84;100.00
27429;BME280;14881;48.092;11.574;2023-07-29T12:16:43;94995.19;;;26.82;100.00
27429;BME280;14881;48.092;11.574;2023-07-29T12:19:12;94990.41;;;26.83;100.00
27429;BME280;14881;48.092;11.574;2023-07-29T12:21:38;94988.16;;;26.53;100.00
27429;BME280;14881;48.092;11.574;2023-07-29T12:24:05;94977.63;;;26.89;100.00
27429;BME280;14881;48.092;11.574;2023-07-29T12:26:32;94970.25;;;27.23;100.00
27429;BME280;14881;48.092;11.574;2023-07-29T12:28:59;94982.03;;;27.45;100.00
27429;BME280;14881;48.092;11.574;2023-07-29T12:31:31;94980.97;;;27.28;100.00
27429;BME280;14881;48.092;11.574;2023-07-29T12:33:58;94982.19;;;27.27;100.00
27429;BME280;14881;48.092;11.574;2023-07-29T12:36:27;94971.31;;;27.40;100.00
27429;BME280;14881;48.092;11.574;2023-07-29T12:39:06;94956.41;;;27.09;100.00
27429;BME280;14881;48.092;11.574;2023-07-29T12:41:33;94950.72;;;27.20;100.00